Charles W. Baker (2M8)
Millington, TN
Field Elevation: 247
Lat: 35°16.74N  Long: 89°55.89W
CTAF/Unicom Freq: 122.8000
   
     For Weather-by-Phone, call 901-873-0903
Weather Advisories
8/30/2014 14:09 Z
Altimeter 30.05" Hg
Wind 140° @ 4 KT
Gusts --
Visibility 8 SM
Ceiling FEW010 SCT012
Temperature 25° C (77° F)
Dewpoint 25° C (77° F)
Relative Humidity 100%
Density Altitude 1,300 feet
Condensation Altitude --
  Wind and Runways
Indicated Runway = 18
History
 
 
More Info
All DigiWx sites map
NOAA Forecast
 
Airport IQ 5010
(M01) General Dewitt Spain Airport
(3M3) Collegedale Muni
 
about DigiWx
 
FAA Disclaimer: The data displayed is for advisory purposes only and is not to be used for flight planning or operations. For official data, please call 901-873-0903 to hear the current automated AWOS voice message.
  METAR 2M8 301409Z AUTO 14004KT 8SM FEW010 SCT012 25/25 A3005